Aérodrome :
LOGIN :

S'inscrire | Disclaimer

   EN    FR    IT 

 










Légende :    VFR   VFR Marginal   IFR   IFR Intensif   IFR Très Intensif
Visi : 
Plafond : 
>= 8 km
>= 3000ft
5 à 8 km
1000 à 3000 ft
1500m à 5 km
500 à 1000 ft
800 à 1500m
200 à 500 ft
< 800m
< 200 ft
Symboles :   Orages  Brouillard  Fortes neiges  Fortes précipitations  Vent > 20 kt
SIGMETs :   Divers  Orages  Givrage  Turbulence  Onde Orograph.  Cendres Volcan.







- Altitude de l'aérodrome : 645 ft
- Code IATA : DLE
- Voir les cartes d'approche


LFGJ - Dole Tavaux

DERNIER METAR :
  • 251200Z AUTO 04015KT 010V070 9999 FEW048 24/12 Q1021 TEMPO 03013G23KT

METARs EXPIRÉS :
  • 251130Z AUTO 03013KT 360V070 9999 SCT047 23/11 Q1021 NOSIG
  • 251100Z AUTO 03014KT 360V060 9999 FEW044 23/11 Q1021 NOSIG
  • 251030Z AUTO 05015KT 360V080 9999 BKN044 23/11 Q1021 NOSIG
  • 251000Z AUTO 02014KT 9999 BKN042 22/11 Q1021 NOSIG
  • 250930Z AUTO 02014KT 9999 BKN041 22/11 Q1021 NOSIG

TAF TAF LFGJ
Valide du 25 à 12h jusqu'au 25 à 21h UTC


251100Z 2512/2521 03012KT CAVOK
TEMPO 2512/2518 03013G23KT
Pas de NOTAMs connus pour ce terrain.



MET'MAP, la Météo Aéronautique d'un coup d'oeil ! - Copyright ORBIFLY Décembre 2007 - Disclaimer

ORBIFLY MET'MAP TEAM :

Programmation & Développement : Alexandra Zaïnal
Conception & Développement : Baudouin d'Aumeries
Co-Programmation & Développement : Marc-Olivier Méhu
Soutien technique & logistique : Manuel Goepfert

Contact : metmap@orbifly.com




SOURCES & CREDITS :

   NOAA